Time;durP1;ratioP1;P1;durP2;ratioP2;P2;SDS_P1;SDS_P2;PMS_P1;PMS_P2;Temp;Humidity;BMP_temperature;BMP_pressure;BME280_temperature;BME280_humidity;BME280_pressure;Samples;Min_cycle;Max_cycle;Signal;HPM_P1;HPM_P2
2021/06/14 00:00:18;;;;;;;8.65;2.50;;;;;;;;;;5068064;28;20047;-55
2021/06/14 00:02:46;;;;;;;6.57;2.65;;;;;;;;;;5068265;28;20029;-56
2021/06/14 00:05:14;;;;;;;8.40;3.15;;;;;;;;;;5063494;28;20028;-55
2021/06/14 00:07:40;;;;;;;;;;;;;;;;;;5068864;28;20039;-56
2021/06/14 00:10:08;;;;;;;5.72;2.20;;;;;;;;;;5066704;28;19934;-55
2021/06/14 00:12:35;;;;;;;7.05;2.80;;;;;;;;;;5046690;28;20032;-57
2021/06/14 00:15:02;;;;;;;8.75;2.30;;;;;;;;;;5052997;28;20118;-58
2021/06/14 00:17:30;;;;;;;6.20;2.42;;;;;;;;;;5084730;28;20113;-58
2021/06/14 00:19:57;;;;;;;4.93;2.20;;;;;;;;;;5065113;28;20040;-55
2021/06/14 00:22:23;;;;;;;10.63;2.47;;;;;;;;;;5066028;28;20036;-57
2021/06/14 00:24:50;;;;;;;6.60;2.40;;;;;;;;;;5082000;28;20082;-57
2021/06/14 00:27:17;;;;;;;7.90;2.33;;;;;;;;;;5067630;28;20033;-50
2021/06/14 00:29:45;;;;;;;7.63;2.13;;;;;;;;;;5063662;28;20036;-58
2021/06/14 00:32:12;;;;;;;5.50;2.30;;;;;;;;;;5068118;28;20041;-56
2021/06/14 00:34:38;;;;;;;7.30;2.08;;;;;;;;;;5082370;28;20029;-58
2021/06/14 00:37:07;;;;;;;8.27;2.35;;;;;;;;;;5068319;28;20055;-58
2021/06/14 00:39:36;;;;;;;7.63;2.35;;;;;;;;;;5065352;28;20052;-56
2021/06/14 00:42:02;;;;;;;6.00;2.20;;;;;;;;;;5066037;28;20050;-54
2021/06/14 00:44:29;;;;;;;8.52;3.58;;;;;;;;;;5084614;28;20032;-59
2021/06/14 00:46:58;;;;;;;5.38;2.45;;;;;;;;;;5065752;28;20058;-55
2021/06/14 00:49:25;;;;;;;5.15;2.38;;;;;;;;;;5069161;28;20055;-58
2021/06/14 00:51:51;;;;;;;6.20;2.55;;;;;;;;;;5064240;28;20105;-51
2021/06/14 00:54:18;;;;;;;8.88;3.00;;;;;;;;;;5050169;28;20066;-57
2021/06/14 00:56:45;;;;;;;6.65;2.38;;;;;;;;;;5083531;28;20048;-54
2021/06/14 00:59:12;;;;;;;7.18;2.60;;;;;;;;;;5067224;28;20048;-53
2021/06/14 01:01:38;;;;;;;7.93;2.67;;;;;;;;;;5065261;28;20040;-53
2021/06/14 01:04:06;;;;;;;8.73;2.95;;;;;;;;;;5050722;28;20048;-55
2021/06/14 01:06:33;;;;;;;7.45;2.63;;;;;;;;;;5042286;28;20045;-55
2021/06/14 01:08:59;;;;;;;6.60;2.50;;;;;;;;;;5046251;28;20032;-52
2021/06/14 01:11:30;;;;;;;7.03;2.67;;;;;;;;;;5043580;28;20041;-56
2021/06/14 01:14:00;;;;;;;9.88;2.65;;;;;;;;;;5046081;28;20049;-53
2021/06/14 01:16:34;;;;;;;6.72;2.58;;;;;;;;;;5060718;28;20077;-54
2021/06/14 01:19:04;;;;;;;7.22;2.22;;;;;;;;;;5065040;28;20033;-54
2021/06/14 01:21:34;;;;;;;6.45;2.70;;;;;;;;;;5044346;28;20129;-53
2021/06/14 01:24:19;;;;;;;5.20;2.65;;;;;;;;;;5047507;28;20040;-57
2021/06/14 01:27:00;;;;;;;8.48;2.50;;;;;;;;;;5046711;28;20044;-53
2021/06/14 01:29:29;;;;;;;6.55;2.40;;;;;;;;;;5047574;28;20029;-52
2021/06/14 01:31:57;;;;;;;7.05;2.33;;;;;;;;;;5060698;28;20033;-51
2021/06/14 01:34:26;;;;;;;11.73;2.78;;;;;;;;;;5048064;28;20048;-46
2021/06/14 01:36:54;;;;;;;5.80;2.72;;;;;;;;;;5037529;28;20037;-55
2021/06/14 01:39:21;;;;;;;6.35;2.63;;;;;;;;;;5045567;28;20034;-53
2021/06/14 01:41:48;;;;;;;11.65;3.17;;;;;;;;;;5024928;28;20060;-53
2021/06/14 01:44:15;;;;;;;6.45;2.40;;;;;;;;;;5045805;28;20049;-51
2021/06/14 01:46:44;;;;;;;9.63;2.60;;;;;;;;;;5046918;28;20044;-55
2021/06/14 01:49:12;;;;;;;6.05;2.42;;;;;;;;;;5043490;28;20097;-53
2021/06/14 01:51:40;;;;;;;11.83;3.00;;;;;;;;;;5046862;28;20037;-52
2021/06/14 01:54:07;;;;;;;6.88;2.83;;;;;;;;;;5042553;28;20051;-54
2021/06/14 01:56:36;;;;;;;12.00;3.35;;;;;;;;;;5044545;28;20041;-52
2021/06/14 01:59:03;;;;;;;9.23;3.00;;;;;;;;;;5042660;28;20044;-54
2021/06/14 02:01:30;;;;;;;8.20;3.35;;;;;;;;;;5044610;28;20051;-54
2021/06/14 02:03:58;;;;;;;11.10;3.10;;;;;;;;;;5040125;28;20037;-57
2021/06/14 02:06:26;;;;;;;8.68;3.15;;;;;;;;;;5064568;28;20037;-53
2021/06/14 02:08:52;;;;;;;10.57;2.88;;;;;;;;;;5055040;28;20091;-53
2021/06/14 02:11:20;;;;;;;7.25;3.00;;;;;;;;;;5026166;28;20037;-55
2021/06/14 02:13:47;;;;;;;8.88;3.63;;;;;;;;;;5030738;28;20053;-57
2021/06/14 02:16:15;;;;;;;8.15;2.85;;;;;;;;;;5064842;28;20073;-56
2021/06/14 02:18:41;;;;;;;8.05;3.00;;;;;;;;;;5042641;28;20037;-55
2021/06/14 02:21:10;;;;;;;8.70;2.83;;;;;;;;;;5048699;28;20085;-56
2021/06/14 02:23:36;;;;;;;7.72;2.70;;;;;;;;;;5046145;28;20060;-55
2021/06/14 02:26:04;;;;;;;9.05;3.60;;;;;;;;;;5031349;28;20044;-53
2021/06/14 02:28:31;;;;;;;10.60;2.70;;;;;;;;;;5041590;28;20026;-54
2021/06/14 02:30:58;;;;;;;9.13;3.03;;;;;;;;;;5048801;28;20041;-54
2021/06/14 02:33:24;;;;;;;8.52;3.50;;;;;;;;;;5047355;28;20113;-53
2021/06/14 02:35:54;;;;;;;9.15;2.97;;;;;;;;;;5046723;28;20091;-54
2021/06/14 02:38:23;;;;;;;9.20;3.30;;;;;;;;;;5048128;28;20040;-55
2021/06/14 02:40:50;;;;;;;5.82;2.88;;;;;;;;;;5045279;28;20045;-56
2021/06/14 02:43:19;;;;;;;9.38;2.97;;;;;;;;;;5065886;28;20049;-52
2021/06/14 02:45:57;;;;;;;9.80;3.30;;;;;;;;;;5061006;28;20037;-56
2021/06/14 02:48:24;;;;;;;9.70;3.20;;;;;;;;;;5066503;28;20029;-52
2021/06/14 02:50:51;;;;;;;8.15;3.03;;;;;;;;;;5045337;28;20037;-56
2021/06/14 02:53:18;;;;;;;7.65;3.25;;;;;;;;;;5048610;28;20041;-54
2021/06/14 02:55:51;;;;;;;7.90;3.25;;;;;;;;;;5044971;28;20059;-57
2021/06/14 02:58:20;;;;;;;10.02;3.30;;;;;;;;;;5049837;28;20033;-54
2021/06/14 03:00:46;;;;;;;11.40;3.05;;;;;;;;;;5045310;28;20033;-57
2021/06/14 03:03:14;;;;;;;8.10;3.20;;;;;;;;;;5046338;28;20045;-50
2021/06/14 03:05:46;;;;;;;10.55;3.20;;;;;;;;;;5043792;28;20063;-56
2021/06/14 03:08:12;;;;;;;13.43;3.72;;;;;;;;;;5048716;28;20110;-55
2021/06/14 03:10:39;;;;;;;7.88;3.05;;;;;;;;;;5028354;28;20045;-52
2021/06/14 03:13:07;;;;;;;8.82;3.30;;;;;;;;;;5045014;28;20052;-53
2021/06/14 03:15:36;;;;;;;9.93;3.90;;;;;;;;;;5049851;28;20048;-53
2021/06/14 03:18:03;;;;;;;10.73;3.53;;;;;;;;;;5031256;28;20029;-56
2021/06/14 03:20:30;;;;;;;11.07;3.40;;;;;;;;;;5029068;28;20033;-56
2021/06/14 03:22:56;;;;;;;9.70;3.55;;;;;;;;;;5035480;28;20125;-54
2021/06/14 03:25:23;;;;;;;9.50;3.50;;;;;;;;;;5046620;28;20067;-51
2021/06/14 03:27:51;;;;;;;9.95;3.40;;;;;;;;;;5042080;28;20139;-52
2021/06/14 03:30:20;;;;;;;10.77;3.97;;;;;;;;;;5027567;28;20179;-55
2021/06/14 03:32:46;;;;;;;13.40;3.78;;;;;;;;;;5029094;28;20037;-49
2021/06/14 03:35:14;;;;;;;8.35;3.55;;;;;;;;;;5059072;28;20032;-51
2021/06/14 03:37:40;;;;;;;12.18;3.55;;;;;;;;;;5049806;28;20052;-53
2021/06/14 03:40:07;;;;;;;9.80;3.55;;;;;;;;;;5035219;28;20069;-53
2021/06/14 03:42:34;;;;;;;7.88;3.35;;;;;;;;;;5028581;28;20037;-53
2021/06/14 03:45:00;;;;;;;9.85;3.25;;;;;;;;;;5027468;28;20044;-51
2021/06/14 03:47:36;;;;;;;9.50;3.90;;;;;;;;;;5021381;28;20047;-53
2021/06/14 03:50:03;;;;;;;10.18;3.45;;;;;;;;;;5043352;28;20045;-56
2021/06/14 03:52:30;;;;;;;9.27;3.28;;;;;;;;;;5063729;28;20037;-52
2021/06/14 03:54:56;;;;;;;18.52;4.28;;;;;;;;;;5047567;28;20039;-56
2021/06/14 03:57:24;;;;;;;10.13;3.22;;;;;;;;;;5030791;28;20182;-50
2021/06/14 03:59:50;;;;;;;10.48;3.90;;;;;;;;;;5045590;28;20037;-49
2021/06/14 04:02:17;;;;;;;11.38;3.45;;;;;;;;;;5024977;28;20053;-52
2021/06/14 04:04:48;;;;;;;11.30;3.60;;;;;;;;;;5043160;28;20052;-49
2021/06/14 04:07:15;;;;;;;16.00;3.95;;;;;;;;;;5024665;28;20057;-56
2021/06/14 04:09:43;;;;;;;7.53;3.40;;;;;;;;;;5026539;28;20033;-52
2021/06/14 04:12:09;;;;;;;5.82;3.20;;;;;;;;;;5027569;28;20048;-52
2021/06/14 04:14:38;;;;;;;9.25;3.55;;;;;;;;;;5041761;28;20041;-57
2021/06/14 04:17:04;;;;;;;9.00;3.63;;;;;;;;;;5064315;28;20086;-53
2021/06/14 04:19:31;;;;;;;12.77;3.85;;;;;;;;;;5043142;28;20032;-55
2021/06/14 04:21:59;;;;;;;8.65;3.63;;;;;;;;;;5048217;28;20114;-56
2021/06/14 04:24:25;;;;;;;8.77;3.70;;;;;;;;;;5062192;28;20094;-52
2021/06/14 04:26:52;;;;;;;9.68;4.70;;;;;;;;;;5047591;28;20342;-52
2021/06/14 04:29:19;;;;;;;16.17;5.65;;;;;;;;;;5043426;28;20040;-56
2021/06/14 04:31:45;;;;;;;13.80;5.72;;;;;;;;;;5036391;28;20129;-56
2021/06/14 04:34:12;;;;;;;12.23;5.60;;;;;;;;;;5035976;28;20056;-55
2021/06/14 04:36:39;;;;;;;11.30;4.88;;;;;;;;;;5034688;28;20057;-56
2021/06/14 04:39:07;;;;;;;15.18;4.45;;;;;;;;;;5030375;28;20068;-55
2021/06/14 04:41:34;;;;;;;19.23;4.70;;;;;;;;;;5054143;28;20036;-55
2021/06/14 04:44:00;;;;;;;10.30;3.65;;;;;;;;;;5029295;28;20056;-53
2021/06/14 04:46:29;;;;;;;8.80;3.85;;;;;;;;;;5036772;28;20036;-54
2021/06/14 04:48:55;;;;;;;;;;;;;;;;;;5045241;28;20033;-57
2021/06/14 04:51:22;;;;;;;8.77;3.00;;;;;;;;;;5032391;28;19978;-52
2021/06/14 04:53:48;;;;;;;8.88;3.53;;;;;;;;;;5033344;28;20029;-53
2021/06/14 04:56:19;;;;;;;8.13;3.28;;;;;;;;;;5031334;28;20048;-56
2021/06/14 04:58:46;;;;;;;12.25;5.32;;;;;;;;;;5029516;28;20029;-54
2021/06/14 05:01:13;;;;;;;21.33;10.00;;;;;;;;;;5052910;28;20040;-55
2021/06/14 05:03:39;;;;;;;32.33;15.20;;;;;;;;;;5030404;28;20053;-55
2021/06/14 05:06:06;;;;;;;24.15;11.75;;;;;;;;;;5035331;28;20079;-56
2021/06/14 05:08:33;;;;;;;14.15;6.18;;;;;;;;;;5031352;28;20053;-54
2021/06/14 05:10:59;;;;;;;11.85;4.97;;;;;;;;;;5030644;28;20065;-58
2021/06/14 05:13:28;;;;;;;17.33;5.00;;;;;;;;;;5030114;28;20041;-52
2021/06/14 05:16:02;;;;;;;13.27;4.85;;;;;;;;;;5052349;28;20060;-58
2021/06/14 05:18:29;;;;;;;13.52;4.30;;;;;;;;;;5036715;28;20038;-54
2021/06/14 05:20:55;;;;;;;11.40;4.55;;;;;;;;;;5032424;28;20053;-58
2021/06/14 05:23:21;;;;;;;14.95;4.63;;;;;;;;;;5052430;28;20053;-56
2021/06/14 05:25:51;;;;;;;12.48;4.72;;;;;;;;;;5029079;28;20045;-55
2021/06/14 05:28:18;;;;;;;13.85;4.82;;;;;;;;;;5039646;28;20048;-58
2021/06/14 05:30:46;;;;;;;18.60;4.97;;;;;;;;;;5028815;28;20025;-58
2021/06/14 05:33:12;;;;;;;12.25;4.35;;;;;;;;;;5029310;28;20064;-56
2021/06/14 05:35:41;;;;;;;13.95;4.40;;;;;;;;;;5029507;28;20034;-53
2021/06/14 05:38:08;;;;;;;12.27;4.72;;;;;;;;;;5034861;28;20077;-53
2021/06/14 05:40:34;;;;;;;28.25;14.63;;;;;;;;;;5031088;28;20150;-56
2021/06/14 05:43:01;;;;;;;19.73;9.10;;;;;;;;;;5028834;28;20037;-54
2021/06/14 05:45:28;;;;;;;13.45;4.97;;;;;;;;;;5051355;28;20034;-54
2021/06/14 05:47:56;;;;;;;12.88;4.85;;;;;;;;;;5030877;28;20053;-53
2021/06/14 05:50:22;;;;;;;11.45;4.70;;;;;;;;;;5030755;28;20065;-56
2021/06/14 05:52:52;;;;;;;15.57;4.70;;;;;;;;;;5027999;28;20115;-51
2021/06/14 05:55:19;;;;;;;12.68;4.45;;;;;;;;;;5017054;28;20155;-52
2021/06/14 05:57:45;;;;;;;17.15;5.15;;;;;;;;;;5036391;28;20041;-50
2021/06/14 06:00:12;;;;;;;23.80;7.93;;;;;;;;;;5038385;28;20119;-51
2021/06/14 06:02:38;;;;;;;11.82;4.90;;;;;;;;;;5036332;28;20041;-53
2021/06/14 06:05:07;;;;;;;11.20;5.10;;;;;;;;;;5045965;28;20033;-54
2021/06/14 06:07:34;;;;;;;15.48;4.85;;;;;;;;;;5043575;28;20063;-49
2021/06/14 06:10:01;;;;;;;14.27;4.93;;;;;;;;;;5034468;28;20127;-58
2021/06/14 06:12:27;;;;;;;14.23;5.15;;;;;;;;;;5026814;28;20123;-56
2021/06/14 06:14:57;;;;;;;15.43;6.00;;;;;;;;;;5065367;28;20102;-56
2021/06/14 06:17:25;;;;;;;21.25;5.32;;;;;;;;;;5049347;28;20033;-56
2021/06/14 06:19:51;;;;;;;19.13;5.68;;;;;;;;;;5045444;28;20066;-57
2021/06/14 06:22:19;;;;;;;14.18;5.07;;;;;;;;;;5048760;28;20037;-58
2021/06/14 06:24:45;;;;;;;14.00;5.47;;;;;;;;;;5044605;28;20346;-58
2021/06/14 06:27:12;;;;;;;12.30;4.95;;;;;;;;;;5047627;28;20032;-53
2021/06/14 06:29:39;;;;;;;14.60;5.07;;;;;;;;;;5045242;28;20047;-56
2021/06/14 06:32:06;;;;;;;14.40;5.00;;;;;;;;;;5047999;28;20280;-56
2021/06/14 06:34:32;;;;;;;16.52;4.80;;;;;;;;;;5043598;28;20025;-57
2021/06/14 06:37:00;;;;;;;14.48;4.85;;;;;;;;;;5066919;28;20041;-54
2021/06/14 06:39:28;;;;;;;19.23;5.28;;;;;;;;;;5045516;28;20040;-57
2021/06/14 06:41:56;;;;;;;13.65;5.00;;;;;;;;;;5048105;28;20044;-58
2021/06/14 06:44:22;;;;;;;14.32;4.20;;;;;;;;;;5044768;28;20052;-57
2021/06/14 06:46:56;;;;;;;12.20;4.93;;;;;;;;;;5048620;28;20025;-58
2021/06/14 06:49:23;;;;;;;10.13;3.97;;;;;;;;;;5044913;28;20037;-58
2021/06/14 06:51:49;;;;;;;15.38;5.47;;;;;;;;;;5048736;28;20047;-56
2021/06/14 06:54:16;;;;;;;18.33;4.68;;;;;;;;;;5045588;28;20047;-58
2021/06/14 06:56:46;;;;;;;11.52;4.22;;;;;;;;;;5046887;28;20122;-58
2021/06/14 06:59:12;;;;;;;9.93;4.20;;;;;;;;;;5045847;28;20052;-55
2021/06/14 07:01:39;;;;;;;9.52;3.60;;;;;;;;;;5036841;28;20045;-58
2021/06/14 07:04:06;;;;;;;10.23;3.85;;;;;;;;;;5046065;28;20118;-58
2021/06/14 07:06:33;;;;;;;13.73;4.15;;;;;;;;;;5043004;28;20106;-58
2021/06/14 07:09:02;;;;;;;10.97;3.77;;;;;;;;;;5041915;28;20041;-56
2021/06/14 07:11:29;;;;;;;22.30;4.55;;;;;;;;;;5040448;28;20040;-57
2021/06/14 07:13:57;;;;;;;13.77;3.60;;;;;;;;;;5047664;28;20044;-57
2021/06/14 07:16:26;;;;;;;9.52;4.05;;;;;;;;;;5044652;28;20041;-57
2021/06/14 07:18:54;;;;;;;10.60;3.85;;;;;;;;;;5036292;28;20056;-55
2021/06/14 07:21:30;;;;;;;12.05;4.03;;;;;;;;;;5025638;28;20041;-54
2021/06/14 07:23:57;;;;;;;11.60;4.20;;;;;;;;;;5032107;28;20025;-57
2021/06/14 07:26:25;;;;;;;11.35;3.78;;;;;;;;;;5045089;28;20037;-56
2021/06/14 07:28:51;;;;;;;17.38;3.63;;;;;;;;;;5064283;28;20032;-53
2021/06/14 07:31:20;;;;;;;15.27;4.75;;;;;;;;;;5055837;28;20033;-57
2021/06/14 07:33:47;;;;;;;12.32;4.00;;;;;;;;;;5048350;28;20114;-59
2021/06/14 07:36:18;;;;;;;10.43;3.42;;;;;;;;;;5045255;28;20044;-57
2021/06/14 07:38:44;;;;;;;8.77;2.97;;;;;;;;;;5047968;28;20023;-56
2021/06/14 07:41:11;;;;;;;11.38;3.38;;;;;;;;;;5045243;28;20037;-57
2021/06/14 07:43:37;;;;;;;13.23;3.30;;;;;;;;;;5047205;28;20051;-59
2021/06/14 07:46:04;;;;;;;11.60;3.22;;;;;;;;;;5063794;28;20049;-52
2021/06/14 07:48:32;;;;;;;15.50;2.97;;;;;;;;;;5028039;28;20103;-58
2021/06/14 07:50:59;;;;;;;9.30;3.20;;;;;;;;;;5028288;28;20048;-58
2021/06/14 07:53:26;;;;;;;9.48;2.95;;;;;;;;;;5044210;28;20041;-58
2021/06/14 07:55:56;;;;;;;12.77;3.78;;;;;;;;;;5046786;28;20045;-58
2021/06/14 07:58:23;;;;;;;11.23;3.33;;;;;;;;;;5044929;28;20053;-53
2021/06/14 08:00:49;;;;;;;14.05;3.30;;;;;;;;;;5046090;28;20037;-55
2021/06/14 08:03:16;;;;;;;11.45;3.17;;;;;;;;;;5063376;28;20086;-57
2021/06/14 08:05:45;;;;;;;9.55;2.70;;;;;;;;;;5048228;28;20048;-57
2021/06/14 08:08:11;;;;;;;8.07;3.40;;;;;;;;;;5043474;28;20120;-56
2021/06/14 08:10:38;;;;;;;10.95;2.85;;;;;;;;;;5048104;28;20046;-54
2021/06/14 08:13:05;;;;;;;9.35;3.15;;;;;;;;;;5043639;28;20110;-55
2021/06/14 08:15:33;;;;;;;9.13;3.50;;;;;;;;;;5047018;28;20032;-54
2021/06/14 08:18:06;;;;;;;6.13;2.92;;;;;;;;;;5044481;28;20067;-57
2021/06/14 08:20:36;;;;;;;11.00;3.42;;;;;;;;;;5045737;28;20057;-59
2021/06/14 08:25:53;;;;;;;12.90;3.40;;;;;;;;;;4985134;28;20081;-58
2021/06/14 08:28:20;;;;;;;15.95;3.58;;;;;;;;;;5042069;28;20033;-57
2021/06/14 08:30:46;;;;;;;11.23;3.10;;;;;;;;;;5047982;28;20052;-58
2021/06/14 08:33:13;;;;;;;7.18;3.05;;;;;;;;;;5043669;28;20044;-58
2021/06/14 08:35:41;;;;;;;11.43;3.00;;;;;;;;;;5046054;28;20052;-58
2021/06/14 08:38:09;;;;;;;13.73;3.38;;;;;;;;;;5043887;28;20039;-59
2021/06/14 08:40:38;;;;;;;12.40;3.20;;;;;;;;;;5047109;28;20044;-58
2021/06/14 08:43:08;;;;;;;12.85;3.78;;;;;;;;;;5047372;28;20072;-58
2021/06/14 08:45:40;;;;;;;10.98;3.17;;;;;;;;;;5043251;28;20098;-57
2021/06/14 08:48:07;;;;;;;15.55;3.50;;;;;;;;;;5048240;28;20037;-58
2021/06/14 08:50:37;;;;;;;12.10;3.97;;;;;;;;;;5044745;28;20036;-58
2021/06/14 08:53:04;;;;;;;12.65;3.42;;;;;;;;;;5045481;28;20086;-55
2021/06/14 08:55:33;;;;;;;15.93;4.45;;;;;;;;;;5059040;28;20056;-57
2021/06/14 08:58:00;;;;;;;13.55;3.65;;;;;;;;;;5046264;28;20122;-57
2021/06/14 09:00:27;;;;;;;11.65;4.15;;;;;;;;;;5051470;28;20048;-56
2021/06/14 09:02:54;;;;;;;13.67;4.00;;;;;;;;;;5042396;28;20048;-57
2021/06/14 09:05:25;;;;;;;12.35;4.45;;;;;;;;;;5043482;28;20114;-58
2021/06/14 09:07:55;;;;;;;12.70;5.03;;;;;;;;;;5063545;28;20039;-58
2021/06/14 09:10:23;;;;;;;14.48;5.40;;;;;;;;;;5035370;28;20048;-57
2021/06/14 09:12:52;;;;;;;9.40;3.88;;;;;;;;;;5046721;28;20032;-57
2021/06/14 09:15:26;;;;;;;16.38;5.45;;;;;;;;;;5043045;28;20063;-58
2021/06/14 09:17:54;;;;;;;14.93;5.13;;;;;;;;;;5047567;28;20077;-59
2021/06/14 09:20:23;;;;;;;17.00;5.82;;;;;;;;;;5044156;28;20041;-58
2021/06/14 09:22:49;;;;;;;10.85;4.60;;;;;;;;;;5046717;28;20072;-58
2021/06/14 09:25:18;;;;;;;10.45;3.88;;;;;;;;;;5043600;28;20033;-57
2021/06/14 09:27:46;;;;;;;12.80;4.10;;;;;;;;;;5044935;28;20061;-59
2021/06/14 09:30:15;;;;;;;13.38;3.92;;;;;;;;;;5043358;28;20037;-59
2021/06/14 09:32:52;;;;;;;15.07;5.28;;;;;;;;;;5045273;28;20056;-57
2021/06/14 09:35:29;;;;;;;11.27;5.10;;;;;;;;;;5049698;28;20040;-58
2021/06/14 09:38:00;;;;;;;12.38;4.60;;;;;;;;;;5064215;28;20037;-58
2021/06/14 09:40:27;;;;;;;18.75;5.63;;;;;;;;;;5046259;28;20057;-59
2021/06/14 09:42:54;;;;;;;9.10;4.28;;;;;;;;;;5044906;28;20052;-58
2021/06/14 09:45:26;;;;;;;13.27;4.78;;;;;;;;;;5038022;28;20126;-57
2021/06/14 09:47:54;;;;;;;12.63;4.40;;;;;;;;;;5062164;28;20122;-58
2021/06/14 09:50:24;;;;;;;14.57;4.40;;;;;;;;;;5045638;28;20065;-57
2021/06/14 09:52:51;;;;;;;14.57;5.20;;;;;;;;;;5060723;28;20051;-59
2021/06/14 09:55:19;;;;;;;11.95;4.72;;;;;;;;;;5045868;28;20084;-57
2021/06/14 09:58:09;;;;;;;14.00;4.78;;;;;;;;;;5018004;28;20033;-59
2021/06/14 10:00:37;;;;;;;8.25;3.50;;;;;;;;;;5047075;28;20033;-58
2021/06/14 10:03:04;;;;;;;8.88;3.65;;;;;;;;;;5039593;28;20051;-58
2021/06/14 10:05:31;;;;;;;12.98;4.70;;;;;;;;;;5035737;28;20120;-58
2021/06/14 10:07:59;;;;;;;13.05;4.72;;;;;;;;;;5042815;28;20056;-59
2021/06/14 10:10:26;;;;;;;;;;;;;;;;;;5044922;28;20052;-58
2021/06/14 10:12:53;;;;;;;11.38;5.15;;;;;;;;;;5041924;28;19917;-59
2021/06/14 10:15:38;;;;;;;12.55;4.47;;;;;;;;;;5045649;28;20040;-59
2021/06/14 10:18:08;;;;;;;8.93;3.92;;;;;;;;;;5042156;28;20045;-59
2021/06/14 10:20:36;;;;;;;10.63;3.70;;;;;;;;;;5046656;28;20033;-59
2021/06/14 10:23:02;;;;;;;;;;;;;;;;;;5040502;28;20040;-59
2021/06/14 10:25:29;;;;;;;8.68;3.58;;;;;;;;;;5061928;28;19928;-57
2021/06/14 10:27:57;;;;;;;11.57;4.22;;;;;;;;;;5046423;28;20033;-59
2021/06/14 10:30:25;;;;;;;20.40;4.57;;;;;;;;;;5065388;28;20032;-59
2021/06/14 10:32:53;;;;;;;12.93;3.80;;;;;;;;;;5061002;28;20040;-59
2021/06/14 10:35:24;;;;;;;10.27;4.13;;;;;;;;;;5044429;28;20297;-60
2021/06/14 10:37:51;;;;;;;9.10;3.40;;;;;;;;;;5043028;28;20044;-58
2021/06/14 10:40:20;;;;;;;10.48;3.70;;;;;;;;;;5043769;28;20121;-59
2021/06/14 10:42:47;;;;;;;9.70;3.55;;;;;;;;;;5049115;28;20153;-58
2021/06/14 10:45:16;;;;;;;10.23;3.58;;;;;;;;;;5063664;28;20129;-59
2021/06/14 10:47:45;;;;;;;10.48;3.30;;;;;;;;;;5049330;28;20069;-59
2021/06/14 10:50:15;;;;;;;12.73;2.90;;;;;;;;;;5063384;28;20045;-58
2021/06/14 10:52:42;;;;;;;10.95;2.83;;;;;;;;;;5047413;28;20045;-59
2021/06/14 10:55:10;;;;;;;9.17;2.80;;;;;;;;;;5045964;28;20069;-58
2021/06/14 10:57:37;;;;;;;8.55;2.85;;;;;;;;;;5048804;28;20040;-58
2021/06/14 11:00:05;;;;;;;12.20;3.25;;;;;;;;;;5046019;28;20033;-58
2021/06/14 11:02:33;;;;;;;11.55;3.17;;;;;;;;;;5045667;28;20139;-59
2021/06/14 11:05:06;;;;;;;11.10;3.85;;;;;;;;;;5060198;28;20052;-60
2021/06/14 11:07:33;;;;;;;13.80;2.80;;;;;;;;;;5047544;28;20033;-56
2021/06/14 11:10:00;;;;;;;11.05;3.33;;;;;;;;;;5061641;28;20113;-58
2021/06/14 11:12:27;;;;;;;11.57;3.00;;;;;;;;;;5065978;28;20041;-59
2021/06/14 11:14:55;;;;;;;5.73;2.60;;;;;;;;;;5045940;28;20053;-58
2021/06/14 11:17:35;;;;;;;9.60;2.47;;;;;;;;;;5050020;28;20274;-59
2021/06/14 11:20:07;;;;;;;8.93;2.50;;;;;;;;;;5045272;28;20043;-59
2021/06/14 11:22:36;;;;;;;11.15;2.75;;;;;;;;;;5048836;28;20029;-59
2021/06/14 11:25:15;;;;;;;8.80;2.58;;;;;;;;;;5046083;28;20126;-57
2021/06/14 11:27:43;;;;;;;8.48;2.97;;;;;;;;;;5028826;28;20033;-57
2021/06/14 11:30:12;;;;;;;7.45;2.53;;;;;;;;;;5035035;28;20130;-58
2021/06/14 11:32:39;;;;;;;13.38;2.92;;;;;;;;;;5045666;28;20097;-60
2021/06/14 11:35:06;;;;;;;8.60;2.88;;;;;;;;;;5047614;28;20051;-59
2021/06/14 11:37:43;;;;;;;9.13;2.92;;;;;;;;;;5043507;28;20044;-59
2021/06/14 11:40:11;;;;;;;9.52;2.47;;;;;;;;;;5037565;28;20122;-59
2021/06/14 11:42:47;;;;;;;7.57;2.72;;;;;;;;;;5044387;28;20098;-59
2021/06/14 11:45:29;;;;;;;9.00;2.60;;;;;;;;;;5048894;28;20029;-59
2021/06/14 11:47:57;;;;;;;8.40;3.58;;;;;;;;;;5045663;28;20049;-60
2021/06/14 11:50:24;;;;;;;7.63;2.95;;;;;;;;;;5048765;28;20029;-60
2021/06/14 11:52:59;;;;;;;13.25;3.00;;;;;;;;;;5044015;28;20122;-60
2021/06/14 11:55:30;;;;;;;7.90;3.17;;;;;;;;;;5049142;28;20041;-59
2021/06/14 11:57:58;;;;;;;10.07;2.88;;;;;;;;;;5044860;28;20045;-60
2021/06/14 12:00:28;;;;;;;14.93;3.08;;;;;;;;;;5047545;28;20119;-57
2021/06/14 12:02:55;;;;;;;10.32;3.42;;;;;;;;;;5040062;28;20049;-58
2021/06/14 12:05:29;;;;;;;8.55;2.65;;;;;;;;;;5065690;28;20070;-58
2021/06/14 12:07:56;;;;;;;13.10;2.90;;;;;;;;;;5045356;28;20041;-59
2021/06/14 12:10:24;;;;;;;8.85;2.55;;;;;;;;;;5048456;28;20032;-57
2021/06/14 12:13:01;;;;;;;9.25;2.83;;;;;;;;;;5041112;28;20078;-58
2021/06/14 12:15:29;;;;;;;6.85;2.47;;;;;;;;;;5026893;28;20159;-58
2021/06/14 12:17:56;;;;;;;12.45;3.13;;;;;;;;;;5031299;28;20036;-57
2021/06/14 12:20:23;;;;;;;8.80;3.08;;;;;;;;;;5047759;28;20118;-56
2021/06/14 12:23:00;;;;;;;11.10;2.90;;;;;;;;;;5043818;28;20076;-54
2021/06/14 12:25:37;;;;;;;7.93;3.00;;;;;;;;;;5064736;28;20040;-57
2021/06/14 12:28:07;;;;;;;9.18;2.83;;;;;;;;;;5044354;28;20040;-58
2021/06/14 12:30:33;;;;;;;7.47;2.80;;;;;;;;;;5064598;28;20052;-58
2021/06/14 12:33:00;;;;;;;10.95;3.00;;;;;;;;;;5044265;28;20158;-58
2021/06/14 12:35:34;;;;;;;9.88;2.85;;;;;;;;;;5040901;28;20037;-59
2021/06/14 12:38:07;;;;;;;13.50;3.05;;;;;;;;;;5042942;28;20039;-57
2021/06/14 12:40:36;;;;;;;7.22;2.42;;;;;;;;;;5045107;28;20049;-58
2021/06/14 12:43:05;;;;;;;11.25;3.03;;;;;;;;;;5043510;28;20036;-58
2021/06/14 12:45:37;;;;;;;10.40;2.53;;;;;;;;;;5045822;28;20044;-58
2021/06/14 12:48:05;;;;;;;9.45;2.67;;;;;;;;;;5046873;28;20036;-59
2021/06/14 12:50:32;;;;;;;5.78;2.40;;;;;;;;;;5044040;28;20045;-60
2021/06/14 12:53:00;;;;;;;14.65;2.17;;;;;;;;;;5046889;28;20037;-57
2021/06/14 12:55:32;;;;;;;7.50;2.45;;;;;;;;;;5062058;28;20045;-59
2021/06/14 12:58:01;;;;;;;3.92;2.03;;;;;;;;;;5047616;28;20036;-58
2021/06/14 13:00:29;;;;;;;8.68;2.30;;;;;;;;;;5043198;28;20048;-57
2021/06/14 13:02:56;;;;;;;7.25;2.40;;;;;;;;;;5043354;28;20118;-58
2021/06/14 13:05:44;;;;;;;9.43;2.22;;;;;;;;;;5041723;28;20045;-60
2021/06/14 13:08:13;;;;;;;6.47;2.67;;;;;;;;;;5046862;28;20025;-58
2021/06/14 13:10:40;;;;;;;8.90;1.85;;;;;;;;;;5041986;28;20033;-60
2021/06/14 13:13:17;;;;;;;9.57;2.92;;;;;;;;;;5047132;28;20044;-59
2021/06/14 13:15:45;;;;;;;8.35;2.00;;;;;;;;;;5042717;28;20110;-60
2021/06/14 13:18:13;;;;;;;4.53;1.77;;;;;;;;;;5046217;28;20044;-59
2021/06/14 13:20:40;;;;;;;5.75;1.88;;;;;;;;;;5043363;28;20048;-59
2021/06/14 13:23:08;;;;;;;5.43;1.83;;;;;;;;;;5046699;28;20045;-59
2021/06/14 13:25:39;;;;;;;4.95;2.10;;;;;;;;;;5061477;28;20041;-59
2021/06/14 13:28:07;;;;;;;6.63;2.15;;;;;;;;;;5045555;28;20053;-59
2021/06/14 13:30:43;;;;;;;4.70;2.13;;;;;;;;;;5042694;28;20085;-59
2021/06/14 13:33:20;;;;;;;5.28;1.77;;;;;;;;;;5045151;28;20036;-60
2021/06/14 13:35:51;;;;;;;6.85;1.77;;;;;;;;;;5045377;28;20021;-58
2021/06/14 13:38:21;;;;;;;10.38;1.88;;;;;;;;;;5042275;28;20259;-59
2021/06/14 13:40:48;;;;;;;6.72;1.60;;;;;;;;;;5041634;28;20048;-59
2021/06/14 13:43:23;;;;;;;4.50;2.03;;;;;;;;;;5045470;28;20041;-59
2021/06/14 13:45:58;;;;;;;10.68;1.80;;;;;;;;;;5042380;28;20045;-58
2021/06/14 13:48:25;;;;;;;5.95;2.00;;;;;;;;;;5045692;28;20047;-58
2021/06/14 13:50:56;;;;;;;6.00;2.03;;;;;;;;;;5043229;28;20068;-58
2021/06/14 13:53:23;;;;;;;7.90;2.15;;;;;;;;;;5045783;28;20037;-60
2021/06/14 13:55:51;;;;;;;6.80;2.07;;;;;;;;;;5047154;28;20037;-58
2021/06/14 13:58:17;;;;;;;6.15;2.83;;;;;;;;;;5044249;28;20060;-60
2021/06/14 14:00:44;;;;;;;6.90;2.08;;;;;;;;;;5044762;28;20029;-60
2021/06/14 14:03:12;;;;;;;7.00;2.60;;;;;;;;;;5061459;28;20051;-60
2021/06/14 14:05:40;;;;;;;;;;;;;;;;;;5046400;28;20052;-58
2021/06/14 14:08:07;;;;;;;7.60;2.67;;;;;;;;;;5041762;28;19946;-58
2021/06/14 14:10:34;;;;;;;8.55;2.78;;;;;;;;;;5063763;28;20037;-59
2021/06/14 14:13:01;;;;;;;7.65;2.92;;;;;;;;;;5042142;28;20037;-59
2021/06/14 14:15:28;;;;;;;9.05;3.20;;;;;;;;;;5063613;28;20069;-58
2021/06/14 14:17:55;;;;;;;8.35;2.80;;;;;;;;;;5045533;28;20054;-58
2021/06/14 14:20:25;;;;;;;11.88;2.95;;;;;;;;;;5049880;28;20047;-58
2021/06/14 14:22:51;;;;;;;10.25;3.58;;;;;;;;;;5044997;28;20060;-59
2021/06/14 14:25:21;;;;;;;9.77;3.10;;;;;;;;;;5048977;28;20036;-59
2021/06/14 14:27:47;;;;;;;10.38;3.35;;;;;;;;;;5063490;28;20032;-58
2021/06/14 14:30:14;;;;;;;8.20;3.17;;;;;;;;;;5047555;28;20032;-59
2021/06/14 14:32:43;;;;;;;6.23;2.57;;;;;;;;;;5027122;28;20203;-58
2021/06/14 14:35:17;;;;;;;14.13;3.10;;;;;;;;;;5049516;28;20048;-59
2021/06/14 14:38:01;;;;;;;15.68;2.70;;;;;;;;;;5038034;28;20039;-58
2021/06/14 14:40:30;;;;;;;5.55;2.47;;;;;;;;;;5048819;28;20037;-59
2021/06/14 14:42:57;;;;;;;6.57;2.38;;;;;;;;;;5046278;28;20045;-58
2021/06/14 14:45:25;;;;;;;7.23;2.10;;;;;;;;;;5048179;28;20122;-57
2021/06/14 14:47:53;;;;;;;8.32;2.20;;;;;;;;;;5047296;28;20041;-61